createdAt,value
2022-09-11T00:01:04.545Z,3.70
2022-09-11T00:03:06.192Z,3.80
2022-09-11T00:05:07.962Z,3.55
2022-09-11T00:07:09.569Z,4.05
2022-09-11T00:09:11.154Z,3.55
2022-09-11T00:11:15.071Z,3.70
2022-09-11T00:13:18.746Z,3.40
2022-09-11T00:15:20.329Z,3.92
2022-09-11T00:17:21.900Z,4.03
2022-09-11T00:19:23.485Z,3.72
2022-09-11T00:21:25.523Z,4.22
2022-09-11T00:23:27.134Z,3.92
2022-09-11T00:25:28.715Z,4.00
2022-09-11T00:27:30.289Z,3.40
2022-09-11T00:29:31.876Z,3.92
2022-09-11T00:31:33.492Z,3.60
2022-09-11T00:33:35.365Z,3.20
2022-09-11T00:35:37.007Z,3.33
2022-09-11T00:37:38.590Z,3.53
2022-09-11T00:39:40.200Z,3.60
2022-09-11T00:41:43.214Z,3.72
2022-09-11T00:44:08.008Z,3.25
2022-09-11T00:46:09.622Z,3.78
2022-09-11T00:48:11.275Z,3.95
2022-09-11T00:50:14.323Z,4.13
2022-09-11T00:52:20.643Z,3.40
2022-09-11T00:54:26.710Z,3.40
2022-09-11T00:56:29.335Z,3.50
2022-09-11T00:58:33.769Z,3.47
2022-09-11T01:02:36.916Z,3.95
2022-09-11T01:04:38.501Z,3.90
2022-09-11T01:06:40.108Z,3.65
2022-09-11T01:08:41.698Z,3.90
2022-09-11T01:10:46.184Z,3.72
2022-09-11T01:15:00.794Z,3.60
2022-09-11T01:17:05.022Z,3.65
2022-09-11T01:19:28.648Z,4.00
2022-09-11T01:21:33.910Z,3.53
2022-09-11T01:24:00.322Z,3.72
2022-09-11T01:26:35.887Z,4.20
2022-09-11T01:28:40.179Z,3.75
2022-09-11T01:30:46.147Z,3.63
2022-09-11T01:33:25.057Z,3.78
2022-09-11T01:35:40.741Z,3.85
2022-09-11T01:38:04.580Z,4.25
2022-09-11T01:40:12.202Z,3.78
2022-09-11T01:42:14.130Z,3.70
2022-09-11T01:44:20.066Z,3.78
2022-09-11T01:46:23.247Z,3.78
2022-09-11T01:48:43.060Z,3.17
2022-09-11T01:50:46.151Z,3.67
2022-09-11T01:52:53.135Z,3.40
2022-09-11T01:55:02.313Z,3.75
2022-09-11T01:57:06.934Z,3.90
2022-09-11T01:59:10.450Z,3.47
2022-09-11T02:01:18.384Z,3.65
2022-09-11T02:03:27.803Z,3.47
2022-09-11T02:05:32.040Z,3.92
2022-09-11T02:07:38.230Z,3.80
2022-09-11T02:10:09.943Z,3.70
2022-09-11T02:12:13.085Z,3.72
2022-09-11T02:14:44.048Z,3.80
2022-09-11T02:16:52.738Z,3.90
2022-09-11T02:18:59.698Z,3.70
2022-09-11T02:21:01.289Z,4.00
2022-09-11T02:23:02.884Z,4.03
2022-09-11T02:25:04.792Z,3.75
2022-09-11T02:27:08.309Z,3.75
2022-09-11T02:29:09.895Z,3.70
2022-09-11T02:31:11.529Z,4.03
2022-09-11T02:33:30.547Z,3.47
2022-09-11T02:35:38.681Z,3.70
2022-09-11T02:38:01.399Z,3.85
2022-09-11T02:40:15.353Z,3.70
2022-09-11T02:42:43.512Z,3.77
2022-09-11T02:45:06.921Z,4.00
2022-09-11T02:47:26.351Z,3.50
2022-09-11T02:49:43.848Z,4.13
2022-09-11T02:51:55.143Z,3.97
2022-09-11T02:54:24.168Z,4.10
2022-09-11T02:56:44.340Z,4.22
2022-09-11T02:58:48.709Z,3.90
2022-09-11T03:02:51.745Z,3.70
2022-09-11T03:04:53.473Z,3.78
2022-09-11T03:06:55.456Z,3.95
2022-09-11T03:08:57.029Z,4.53
2022-09-11T03:10:58.619Z,3.75
2022-09-11T03:13:00.248Z,4.00
2022-09-11T03:15:01.818Z,4.43
2022-09-11T03:17:03.672Z,3.50
2022-09-11T03:19:05.563Z,4.22
2022-09-11T03:21:07.154Z,3.85
2022-09-11T03:23:08.730Z,3.17
2022-09-11T03:25:10.480Z,3.90
2022-09-11T03:27:12.753Z,4.07
2022-09-11T03:29:14.333Z,4.43
2022-09-11T03:31:16.425Z,3.97
2022-09-11T03:33:18.037Z,4.10
2022-09-11T03:35:19.632Z,3.92
2022-09-11T03:37:21.216Z,4.30
2022-09-11T03:39:22.791Z,3.90
2022-09-11T03:41:24.368Z,3.70
2022-09-11T03:43:25.947Z,3.83
2022-09-11T03:45:27.600Z,4.00
2022-09-11T03:47:29.216Z,3.92
2022-09-11T03:49:30.811Z,3.65
2022-09-11T03:51:32.914Z,3.80
2022-09-11T03:53:34.525Z,4.00
2022-09-11T03:55:36.095Z,3.78
2022-09-11T03:57:37.757Z,3.70
2022-09-11T03:59:39.330Z,3.88
2022-09-11T04:01:40.982Z,3.92
2022-09-11T04:03:42.806Z,4.13
2022-09-11T04:05:55.244Z,3.97
2022-09-11T04:07:56.823Z,3.97
2022-09-11T04:09:58.504Z,3.90
2022-09-11T04:12:00.105Z,3.85
2022-09-11T04:14:02.422Z,3.78
2022-09-11T04:16:08.482Z,3.78
2022-09-11T04:18:10.089Z,4.05
2022-09-11T04:20:11.675Z,4.05
2022-09-11T04:22:13.261Z,3.95
2022-09-11T04:24:14.840Z,4.03
2022-09-11T04:26:18.245Z,3.92
2022-09-11T04:28:19.840Z,3.67
2022-09-11T04:30:21.416Z,4.05
2022-09-11T04:32:22.996Z,4.05
2022-09-11T04:34:24.571Z,4.05
2022-09-11T04:36:26.152Z,4.15
2022-09-11T04:38:27.735Z,4.05
2022-09-11T04:40:29.312Z,4.07
2022-09-11T04:42:30.960Z,3.83
2022-09-11T04:44:32.531Z,3.72
2022-09-11T04:46:34.108Z,4.05
2022-09-11T04:48:35.691Z,4.15
2022-09-11T04:50:37.280Z,3.72
2022-09-11T04:52:38.864Z,3.88
2022-09-11T04:54:40.446Z,3.75
2022-09-11T04:56:42.198Z,4.68
2022-09-11T04:58:43.848Z,4.25
2022-09-11T05:00:45.442Z,3.72
2022-09-11T05:02:47.053Z,3.53
2022-09-11T05:04:48.633Z,4.20
2022-09-11T05:06:50.217Z,3.78
2022-09-11T05:08:52.027Z,4.45
2022-09-11T05:10:53.639Z,4.00
2022-09-11T05:12:55.232Z,3.72
2022-09-11T05:14:56.826Z,3.70
2022-09-11T05:16:59.010Z,3.90
2022-09-11T05:19:00.891Z,3.85
2022-09-11T05:21:03.333Z,4.07
2022-09-11T05:23:04.904Z,3.90
2022-09-11T05:25:06.684Z,3.58
2022-09-11T05:27:08.280Z,4.00
2022-09-11T05:29:14.192Z,3.85
2022-09-11T05:31:17.086Z,3.85
2022-09-11T05:33:18.885Z,3.55
2022-09-11T05:35:21.218Z,3.83
2022-09-11T05:37:22.827Z,3.95
2022-09-11T05:39:24.527Z,3.47
2022-09-11T05:41:26.139Z,3.60
2022-09-11T05:43:27.746Z,3.97
2022-09-11T05:45:29.367Z,3.60
2022-09-11T05:47:30.959Z,4.05
2022-09-11T05:49:32.546Z,3.70
2022-09-11T05:51:34.125Z,4.10
2022-09-11T05:53:35.762Z,3.95
2022-09-11T05:55:37.336Z,4.25
2022-09-11T05:57:38.917Z,3.40
2022-09-11T05:59:40.502Z,3.63
2022-09-11T06:01:42.100Z,3.65
2022-09-11T06:03:43.971Z,3.60
2022-09-11T06:05:45.607Z,3.65
2022-09-11T06:07:47.176Z,3.88
2022-09-11T06:09:48.776Z,4.10
2022-09-11T06:11:50.366Z,3.70
2022-09-11T06:13:51.962Z,3.78
2022-09-11T06:15:53.557Z,3.80
2022-09-11T06:17:55.163Z,4.03
2022-09-11T06:19:56.813Z,3.83
2022-09-11T06:21:58.401Z,3.95
2022-09-11T06:23:59.985Z,3.58
2022-09-11T06:26:12.372Z,3.38
2022-09-11T06:28:14.132Z,3.63
2022-09-11T06:30:15.794Z,3.60
2022-09-11T06:32:17.380Z,4.07
2022-09-11T06:34:18.956Z,3.78
2022-09-11T06:36:21.982Z,3.42
2022-09-11T06:38:26.754Z,3.83
2022-09-11T06:40:28.344Z,3.67
2022-09-11T06:42:29.935Z,3.67
2022-09-11T06:44:31.513Z,3.75
2022-09-11T06:46:33.103Z,3.40
2022-09-11T06:48:34.733Z,3.80
2022-09-11T06:50:39.184Z,3.70
2022-09-11T06:54:42.145Z,3.50
2022-09-11T06:56:43.732Z,3.90
2022-09-11T06:58:45.581Z,3.72
2022-09-11T07:00:47.193Z,3.78
2022-09-11T07:02:48.802Z,3.65
2022-09-11T07:04:50.393Z,3.47
2022-09-11T07:06:51.985Z,4.00
2022-09-11T07:08:57.568Z,3.90
2022-09-11T07:11:09.965Z,3.28
2022-09-11T07:13:11.607Z,3.83
2022-09-11T07:15:13.239Z,3.80
2022-09-11T07:17:14.826Z,3.22
2022-09-11T07:19:16.443Z,3.63
2022-09-11T07:21:19.954Z,3.67
2022-09-11T07:23:21.536Z,3.33
2022-09-11T07:25:23.124Z,3.80
2022-09-11T07:27:24.711Z,3.40
2022-09-11T07:29:26.300Z,3.72
2022-09-11T07:31:31.674Z,3.30
2022-09-11T07:33:33.429Z,3.65
2022-09-11T07:35:37.059Z,3.53
2022-09-11T07:37:38.637Z,3.87
2022-09-11T07:39:40.402Z,3.25
2022-09-11T07:41:42.081Z,3.63
2022-09-11T07:43:43.865Z,3.60
2022-09-11T07:45:45.544Z,3.30
2022-09-11T07:47:47.139Z,3.50
2022-09-11T07:49:48.753Z,3.20
2022-09-11T07:51:50.374Z,3.20
2022-09-11T07:53:52.190Z,3.17
2022-09-11T07:55:53.781Z,3.20
2022-09-11T07:57:55.372Z,3.33
2022-09-11T07:59:56.963Z,3.15
2022-09-11T08:01:58.582Z,3.20
2022-09-11T08:04:02.189Z,3.55
2022-09-11T08:06:06.171Z,3.50
2022-09-11T08:08:07.770Z,3.35
2022-09-11T08:10:26.802Z,3.20
2022-09-11T08:12:29.406Z,3.22
2022-09-11T08:14:30.986Z,3.67
2022-09-11T08:16:32.686Z,3.28
2022-09-11T08:18:34.427Z,3.20
2022-09-11T08:20:36.028Z,3.45
2022-09-11T08:22:37.607Z,3.53
2022-09-11T08:24:39.211Z,3.53
2022-09-11T08:26:40.797Z,3.20
2022-09-11T08:28:42.898Z,3.58
2022-09-11T08:30:44.504Z,3.13
2022-09-11T08:32:46.085Z,3.00
2022-09-11T08:34:47.687Z,3.10
2022-09-11T08:36:49.314Z,3.15
2022-09-11T08:38:50.892Z,3.08
2022-09-11T08:40:52.492Z,3.30
2022-09-11T08:42:54.071Z,3.00
2022-09-11T08:44:56.733Z,3.38
2022-09-11T08:47:05.380Z,3.05
2022-09-11T08:49:26.448Z,3.00
2022-09-11T08:51:28.055Z,3.03
2022-09-11T08:53:30.387Z,3.10
2022-09-11T08:55:37.280Z,3.42
2022-09-11T08:57:38.805Z,3.13
2022-09-11T08:59:52.511Z,3.10
2022-09-11T09:02:07.710Z,3.15
2022-09-11T09:04:37.107Z,3.25
2022-09-11T09:07:00.193Z,2.72
2022-09-11T09:09:29.752Z,2.90
2022-09-11T09:11:45.740Z,2.67
2022-09-11T09:14:05.921Z,3.00
2022-09-11T09:16:38.355Z,2.90
2022-09-11T09:19:01.966Z,3.28
2022-09-11T09:21:11.645Z,3.25
2022-09-11T09:23:24.840Z,3.47
2022-09-11T09:25:26.435Z,3.33
2022-09-11T09:27:30.823Z,3.10
2022-09-11T09:31:35.508Z,3.08
2022-09-11T09:33:47.661Z,3.05
2022-09-11T09:35:49.278Z,2.90
2022-09-11T09:37:50.928Z,2.70
2022-09-11T09:39:52.553Z,2.90
2022-09-11T09:41:57.311Z,3.13
2022-09-11T09:44:24.256Z,2.92
2022-09-11T09:46:41.811Z,2.75
2022-09-11T09:48:43.527Z,2.80
2022-09-11T09:50:45.233Z,2.60
2022-09-11T09:52:47.570Z,2.80
2022-09-11T09:54:56.014Z,3.08
2022-09-11T09:57:04.785Z,2.80
2022-09-11T09:59:08.890Z,3.00
2022-09-11T10:01:41.301Z,2.72
2022-09-11T10:03:43.013Z,2.63
2022-09-11T10:05:44.663Z,2.78
2022-09-11T10:07:51.141Z,2.72
2022-09-11T10:09:53.619Z,3.00
2022-09-11T10:12:06.365Z,2.70
2022-09-11T10:14:11.876Z,3.00
2022-09-11T10:16:20.162Z,2.70
2022-09-11T10:18:40.400Z,2.90
2022-09-11T10:20:41.992Z,2.75
2022-09-11T10:22:43.588Z,3.30
2022-09-11T10:24:45.262Z,2.42
2022-09-11T10:26:48.240Z,2.88
2022-09-11T10:28:49.846Z,2.70
2022-09-11T10:30:54.480Z,2.92
2022-09-11T10:33:00.061Z,2.90
2022-09-11T10:35:09.217Z,2.67
2022-09-11T10:37:13.453Z,2.40
2022-09-11T10:39:16.471Z,2.92
2022-09-11T10:41:20.519Z,2.95
2022-09-11T10:43:26.706Z,2.70
2022-09-11T10:45:28.309Z,2.63
2022-09-11T10:47:30.118Z,2.70
2022-09-11T10:49:31.741Z,2.80
2022-09-11T10:51:35.215Z,2.53
2022-09-11T10:53:42.979Z,2.72
2022-09-11T10:55:58.233Z,3.13
2022-09-11T10:58:13.395Z,2.50
2022-09-11T11:00:20.817Z,3.03
2022-09-11T11:02:35.859Z,2.42
2022-09-11T11:04:37.466Z,2.50
2022-09-11T11:07:07.003Z,2.65
2022-09-11T11:09:16.743Z,2.47
2022-09-11T11:11:30.351Z,2.67
2022-09-11T11:13:39.210Z,2.50
2022-09-11T11:15:58.700Z,2.97
2022-09-11T11:18:20.441Z,2.70
2022-09-11T11:20:58.748Z,2.40
2022-09-11T11:23:18.274Z,2.70
2022-09-11T11:25:33.016Z,2.28
2022-09-11T11:28:04.031Z,2.45
2022-09-11T11:30:12.089Z,2.60
2022-09-11T11:32:21.074Z,2.50
2022-09-11T11:34:38.779Z,2.65
2022-09-11T11:37:01.029Z,2.70
2022-09-11T11:39:08.654Z,2.67
2022-09-11T11:41:13.079Z,2.50
2022-09-11T11:45:40.145Z,2.75
2022-09-11T11:47:41.753Z,2.40
2022-09-11T11:50:00.968Z,2.35
2022-09-11T11:52:30.387Z,2.28
2022-09-11T11:54:45.444Z,2.65
2022-09-11T11:56:51.409Z,2.30
2022-09-11T11:59:09.880Z,2.58
2022-09-11T12:01:21.429Z,2.13
2022-09-11T12:03:36.765Z,2.05
2022-09-11T12:05:38.421Z,2.38
2022-09-11T12:07:40.062Z,2.78
2022-09-11T12:09:46.808Z,2.75
2022-09-11T12:11:51.326Z,2.50
2022-09-11T12:13:52.984Z,2.50
2022-09-11T12:16:25.834Z,2.17
2022-09-11T12:18:27.537Z,2.10
2022-09-11T12:20:30.211Z,2.30
2022-09-11T12:22:36.140Z,2.58
2022-09-11T12:24:49.605Z,2.25
2022-09-11T12:27:28.568Z,2.38
2022-09-11T12:29:30.310Z,2.13
2022-09-11T12:31:51.009Z,2.38
2022-09-11T12:33:53.012Z,2.40
2022-09-11T12:35:54.623Z,2.50
2022-09-11T12:38:01.200Z,2.55
2022-09-11T12:40:12.954Z,2.20
2022-09-11T12:42:23.784Z,2.50
2022-09-11T12:44:29.489Z,2.50
2022-09-11T12:46:31.158Z,2.55
2022-09-11T12:48:36.970Z,2.47
2022-09-11T12:50:38.678Z,2.53
2022-09-11T12:52:51.783Z,2.70
2022-09-11T12:54:53.393Z,2.15
2022-09-11T12:57:05.930Z,2.40
2022-09-11T12:59:08.125Z,2.40
2022-09-11T13:01:14.637Z,2.30
2022-09-11T13:03:20.989Z,2.30
2022-09-11T13:05:30.087Z,2.05
2022-09-11T13:07:40.916Z,2.33
2022-09-11T13:09:46.690Z,2.28
2022-09-11T13:11:50.050Z,2.45
2022-09-11T13:13:51.669Z,2.00
2022-09-11T13:15:53.302Z,2.35
2022-09-11T13:17:54.941Z,2.22
2022-09-11T13:20:05.631Z,2.35
2022-09-11T13:22:24.426Z,2.25
2022-09-11T13:24:30.094Z,2.10
2022-09-11T13:26:31.732Z,2.40
2022-09-11T13:28:48.020Z,2.20
2022-09-11T13:31:12.290Z,2.20
2022-09-11T13:33:22.891Z,2.33
2022-09-11T13:35:26.276Z,2.40
2022-09-11T13:37:40.160Z,2.15
2022-09-11T13:39:44.987Z,3.10
2022-09-11T13:41:49.320Z,2.03
2022-09-11T13:44:01.561Z,2.40
2022-09-11T13:46:29.995Z,2.20
2022-09-11T13:48:31.699Z,2.38
2022-09-11T13:50:33.481Z,2.00
2022-09-11T13:52:35.462Z,1.88
2022-09-11T13:54:38.123Z,2.78
2022-09-11T13:56:45.024Z,2.20
2022-09-11T13:58:49.313Z,2.05
2022-09-11T14:00:54.659Z,2.08
2022-09-11T14:02:56.453Z,2.03
2022-09-11T14:05:03.863Z,2.03
2022-09-11T14:07:15.231Z,2.20
2022-09-11T14:09:20.178Z,2.00
2022-09-11T14:11:26.818Z,2.10
2022-09-11T14:13:41.208Z,1.83
2022-09-11T14:16:07.343Z,2.05
2022-09-11T14:18:36.421Z,1.77
2022-09-11T14:20:41.620Z,1.80
2022-09-11T14:22:43.366Z,1.80
2022-09-11T14:25:21.034Z,1.90
2022-09-11T14:27:36.188Z,2.17
2022-09-11T14:29:40.675Z,2.30
2022-09-11T14:31:43.069Z,1.85
2022-09-11T14:33:44.942Z,2.20
2022-09-11T14:35:47.128Z,2.70
2022-09-11T14:37:48.813Z,1.80
2022-09-11T14:39:55.242Z,1.70
2022-09-11T14:41:57.380Z,1.70
2022-09-11T14:44:00.917Z,2.10
2022-09-11T14:46:03.527Z,2.03
2022-09-11T14:48:14.088Z,2.20
2022-09-11T14:50:16.087Z,2.10
2022-09-11T14:52:19.632Z,2.35
2022-09-11T14:54:21.473Z,1.70
2022-09-11T14:56:26.190Z,1.80
2022-09-11T14:58:28.173Z,1.90
2022-09-11T15:00:30.016Z,1.80
2022-09-11T15:02:33.536Z,1.67
2022-09-11T15:04:36.184Z,1.90
2022-09-11T15:06:37.894Z,1.90
2022-09-11T15:08:39.607Z,2.30
2022-09-11T15:10:41.317Z,2.17
2022-09-11T15:12:43.405Z,1.67
2022-09-11T15:14:56.643Z,1.85
2022-09-11T15:17:00.577Z,1.70
2022-09-11T15:19:02.387Z,1.70
2022-09-11T15:21:04.475Z,1.63
2022-09-11T15:23:06.155Z,1.60
2022-09-11T15:25:08.363Z,2.00
2022-09-11T15:27:10.098Z,1.80
2022-09-11T15:29:11.913Z,1.75
2022-09-11T15:31:13.959Z,1.63
2022-09-11T15:33:15.587Z,1.98
2022-09-11T15:35:17.418Z,1.65
2022-09-11T15:37:19.532Z,1.60
2022-09-11T15:39:21.631Z,1.50
2022-09-11T15:41:24.887Z,1.50
2022-09-11T15:43:34.215Z,1.80
2022-09-11T15:45:38.867Z,1.80
2022-09-11T15:47:40.694Z,1.80
2022-09-11T15:49:43.013Z,2.00
2022-09-11T15:51:45.185Z,1.55
2022-09-11T15:53:46.967Z,1.63
2022-09-11T15:55:48.823Z,2.05
2022-09-11T15:57:50.583Z,2.00
2022-09-11T15:59:52.202Z,1.92
2022-09-11T16:01:54.002Z,2.03
2022-09-11T16:03:57.976Z,2.10
2022-09-11T16:05:59.788Z,1.70
2022-09-11T16:08:01.864Z,1.75
2022-09-11T16:10:03.820Z,1.88
2022-09-11T16:12:05.796Z,1.65
2022-09-11T16:14:08.028Z,1.75
2022-09-11T16:16:09.967Z,1.70
2022-09-11T16:18:11.635Z,1.73
2022-09-11T16:20:13.439Z,1.88
2022-09-11T16:22:15.241Z,1.83
2022-09-11T16:24:17.335Z,2.15
2022-09-11T16:26:19.787Z,1.60
2022-09-11T16:28:22.144Z,1.90
2022-09-11T16:30:42.914Z,2.47
2022-09-11T16:32:46.438Z,2.20
2022-09-11T16:34:48.319Z,2.03
2022-09-11T16:36:50.210Z,1.70
2022-09-11T16:38:52.185Z,1.70
2022-09-11T16:41:04.545Z,1.88
2022-09-11T16:43:06.425Z,2.03
2022-09-11T16:45:08.480Z,2.10
2022-09-11T16:47:10.133Z,2.03
2022-09-11T16:49:18.695Z,2.38
2022-09-11T16:51:20.832Z,1.98
2022-09-11T16:53:22.890Z,1.90
2022-09-11T16:55:25.043Z,2.28
2022-09-11T16:57:26.974Z,2.15
2022-09-11T16:59:28.898Z,2.10
2022-09-11T17:01:30.793Z,2.13
2022-09-11T17:03:32.647Z,2.08
2022-09-11T17:05:34.290Z,2.03
2022-09-11T17:07:36.188Z,2.30
2022-09-11T17:09:37.965Z,2.00
2022-09-11T17:11:39.860Z,2.00
2022-09-11T17:13:42.320Z,1.98
2022-09-11T17:15:43.982Z,2.00
2022-09-11T17:17:46.007Z,2.40
2022-09-11T17:19:48.148Z,2.13
2022-09-11T17:21:50.168Z,2.00
2022-09-11T17:23:53.156Z,1.90
2022-09-11T17:25:55.150Z,1.60
2022-09-11T17:27:56.873Z,2.13
2022-09-11T17:29:59.118Z,2.10
2022-09-11T17:32:24.142Z,1.80
2022-09-11T17:34:22.745Z,2.10
2022-09-11T17:36:26.842Z,1.88
2022-09-11T17:38:28.873Z,2.08
2022-09-11T17:40:31.922Z,1.90
2022-09-11T17:42:33.836Z,2.10
2022-09-11T17:44:35.761Z,2.20
2022-09-11T17:46:37.808Z,1.80
2022-09-11T17:48:39.801Z,2.38
2022-09-11T17:50:41.589Z,2.08
2022-09-11T17:52:43.633Z,1.90
2022-09-11T17:54:45.640Z,2.05
2022-09-11T17:56:47.364Z,2.15
2022-09-11T17:58:56.114Z,2.30
2022-09-11T18:00:58.393Z,2.47
2022-09-11T18:03:00.686Z,1.98
2022-09-11T18:05:02.887Z,2.60
2022-09-11T18:07:05.197Z,2.20
2022-09-11T18:09:09.044Z,3.05
2022-09-11T18:11:10.891Z,2.30
2022-09-11T18:13:13.193Z,2.47
2022-09-11T18:15:14.909Z,2.30
2022-09-11T18:17:16.986Z,2.20
2022-09-11T18:19:19.060Z,2.80
2022-09-11T18:21:20.907Z,2.67
2022-09-11T18:23:23.887Z,2.40
2022-09-11T18:25:25.636Z,2.35
2022-09-11T18:27:27.339Z,2.55
2022-09-11T18:29:30.151Z,2.17
2022-09-11T18:31:33.491Z,2.83
2022-09-11T18:33:35.609Z,2.28
2022-09-11T18:35:38.104Z,2.40
2022-09-11T18:37:40.049Z,2.53
2022-09-11T18:39:42.133Z,2.30
2022-09-11T18:41:44.246Z,1.92
2022-09-11T18:43:46.115Z,2.08
2022-09-11T18:45:48.084Z,1.83
2022-09-11T18:47:49.926Z,2.30
2022-09-11T18:49:51.771Z,3.00
2022-09-11T18:51:53.512Z,2.08
2022-09-11T18:53:55.627Z,2.50
2022-09-11T18:56:01.264Z,2.17
2022-09-11T18:58:03.091Z,2.30
2022-09-11T19:00:05.382Z,2.47
2022-09-11T19:02:07.360Z,2.05
2022-09-11T19:04:10.644Z,2.63
2022-09-11T19:06:13.862Z,2.42
2022-09-11T19:08:15.656Z,1.90
2022-09-11T19:10:17.825Z,2.35
2022-09-11T19:12:19.755Z,2.70
2022-09-11T19:14:21.815Z,2.30
2022-09-11T19:16:23.616Z,2.17
2022-09-11T19:18:26.039Z,2.40
2022-09-11T19:20:27.862Z,2.58
2022-09-11T19:22:29.612Z,2.05
2022-09-11T19:24:31.390Z,2.13
2022-09-11T19:26:36.937Z,2.58
2022-09-11T19:28:39.327Z,2.20
2022-09-11T19:30:43.158Z,1.98
2022-09-11T19:32:45.227Z,2.00
2022-09-11T19:34:47.457Z,1.90
2022-09-11T19:36:49.473Z,1.75
2022-09-11T19:38:51.553Z,2.30
2022-09-11T19:40:53.413Z,2.20
2022-09-11T19:42:55.952Z,2.20
2022-09-11T19:44:57.643Z,1.98
2022-09-11T19:46:59.603Z,2.00
2022-09-11T19:49:02.637Z,2.00
2022-09-11T19:51:15.291Z,2.20
2022-09-11T19:53:17.047Z,2.17
2022-09-11T19:55:18.977Z,2.30
2022-09-11T19:57:20.688Z,1.92
2022-09-11T19:59:22.438Z,2.10
2022-09-11T20:01:25.178Z,2.30
2022-09-11T20:03:26.991Z,1.85
2022-09-11T20:05:28.671Z,1.92
2022-09-11T20:07:30.381Z,2.20
2022-09-11T20:09:32.664Z,2.20
2022-09-11T20:11:34.613Z,2.28
2022-09-11T20:13:36.405Z,2.00
2022-09-11T20:15:38.695Z,1.80
2022-09-11T20:17:40.394Z,2.08
2022-09-11T20:19:42.047Z,2.22
2022-09-11T20:21:43.792Z,2.47
2022-09-11T20:23:45.549Z,1.95
2022-09-11T20:25:47.362Z,2.22
2022-09-11T20:27:49.081Z,2.00
2022-09-11T20:29:50.873Z,2.00
2022-09-11T20:31:52.666Z,2.28
2022-09-11T20:33:54.467Z,2.28
2022-09-11T20:35:56.254Z,2.17
2022-09-11T20:37:57.971Z,2.30
2022-09-11T20:40:00.621Z,2.33
2022-09-11T20:42:02.585Z,2.15
2022-09-11T20:44:04.502Z,2.25
2022-09-11T20:46:06.551Z,2.42
2022-09-11T20:48:08.257Z,1.98
2022-09-11T20:50:10.185Z,1.92
2022-09-11T20:52:12.550Z,2.20
2022-09-11T20:54:14.343Z,2.03
2022-09-11T20:56:18.033Z,2.00
2022-09-11T20:58:19.848Z,2.17
2022-09-11T21:00:21.690Z,2.20
2022-09-11T21:02:23.498Z,2.20
2022-09-11T21:04:25.298Z,1.85
2022-09-11T21:06:28.542Z,2.30
2022-09-11T21:08:30.291Z,2.72
2022-09-11T21:10:35.206Z,2.08
2022-09-11T21:12:37.016Z,2.20
2022-09-11T21:14:38.721Z,2.20
2022-09-11T21:16:40.522Z,2.13
2022-09-11T21:18:47.119Z,2.70
2022-09-11T21:20:55.685Z,2.17
2022-09-11T21:22:57.365Z,2.35
2022-09-11T21:24:59.042Z,2.20
2022-09-11T21:27:00.728Z,2.17
2022-09-11T21:29:04.248Z,2.13
2022-09-11T21:31:05.957Z,2.30
2022-09-11T21:33:07.684Z,2.13
2022-09-11T21:35:09.390Z,3.33
2022-09-11T21:37:11.106Z,2.30
2022-09-11T21:39:12.958Z,2.45
2022-09-11T21:41:14.794Z,2.65
2022-09-11T21:43:16.641Z,2.55
2022-09-11T21:45:18.358Z,2.30
2022-09-11T21:47:20.117Z,2.63
2022-09-11T21:49:21.797Z,2.38
2022-09-11T21:51:23.477Z,1.98
2022-09-11T21:53:25.169Z,2.15
2022-09-11T21:55:26.960Z,2.47
2022-09-11T21:57:28.700Z,1.98
2022-09-11T21:59:30.442Z,2.40
2022-09-11T22:01:32.263Z,2.35
2022-09-11T22:03:34.203Z,2.42
2022-09-11T22:05:39.560Z,2.22
2022-09-11T22:07:41.236Z,2.17
2022-09-11T22:09:43.522Z,2.22
2022-09-11T22:11:45.250Z,2.20
2022-09-11T22:13:46.918Z,2.58
2022-09-11T22:15:49.557Z,2.35
2022-09-11T22:17:51.313Z,2.15
2022-09-11T22:19:52.946Z,2.15
2022-09-11T22:21:54.643Z,2.60
2022-09-11T22:23:56.303Z,2.38
2022-09-11T22:26:06.827Z,2.13
2022-09-11T22:28:08.565Z,2.03
2022-09-11T22:30:10.825Z,2.22
2022-09-11T22:32:12.545Z,2.28
2022-09-11T22:34:14.333Z,2.20
2022-09-11T22:36:17.778Z,2.38
2022-09-11T22:38:19.471Z,2.15
2022-09-11T22:40:21.174Z,2.40
2022-09-11T22:42:22.902Z,2.00
2022-09-11T22:44:24.651Z,2.28
2022-09-11T22:46:26.380Z,2.45
2022-09-11T22:48:28.080Z,2.15
2022-09-11T22:50:29.780Z,2.97
2022-09-11T22:52:31.443Z,2.35
2022-09-11T22:54:33.191Z,2.30
2022-09-11T22:56:34.885Z,2.42
2022-09-11T22:58:36.673Z,2.10
2022-09-11T23:00:38.696Z,2.13
2022-09-11T23:02:40.434Z,2.30
2022-09-11T23:04:42.109Z,1.92
2022-09-11T23:06:43.748Z,2.05
2022-09-11T23:08:45.732Z,1.88
2022-09-11T23:10:47.581Z,2.05
2022-09-11T23:12:50.775Z,2.08
2022-09-11T23:14:52.544Z,2.10
2022-09-11T23:16:54.277Z,2.15
2022-09-11T23:19:00.824Z,2.22
2022-09-11T23:21:02.638Z,2.20
2022-09-11T23:23:04.415Z,1.83
2022-09-11T23:25:06.597Z,2.20
2022-09-11T23:27:08.323Z,2.30
2022-09-11T23:29:10.412Z,2.30
2022-09-11T23:31:23.025Z,2.38
2022-09-11T23:33:24.732Z,2.35
2022-09-11T23:35:26.460Z,2.45
2022-09-11T23:37:28.168Z,2.22
2022-09-11T23:39:29.858Z,2.17
2022-09-11T23:41:31.579Z,2.30
2022-09-11T23:43:33.323Z,2.22
2022-09-11T23:45:35.081Z,2.33
2022-09-11T23:47:36.784Z,2.40
2022-09-11T23:49:38.591Z,2.28
2022-09-11T23:51:40.236Z,1.92
2022-09-11T23:53:42.225Z,2.15
2022-09-11T23:55:47.502Z,1.90
2022-09-11T23:57:49.281Z,2.20
2022-09-11T23:59:50.929Z,2.10
